createdAt,value
2023-03-02T00:01:40.141Z,19.63
2023-03-02T00:04:13.865Z,18.98
2023-03-02T00:06:42.523Z,21.38
2023-03-02T00:09:10.737Z,13.50
2023-03-02T00:11:39.907Z,15.90
2023-03-02T00:14:08.593Z,17.17
2023-03-02T00:16:37.126Z,15.63
2023-03-02T00:19:05.750Z,13.02
2023-03-02T00:21:35.381Z,24.13
2023-03-02T00:24:04.606Z,13.40
2023-03-02T00:26:34.890Z,17.02
2023-03-02T00:29:04.017Z,12.48
2023-03-02T00:31:32.379Z,12.50
2023-03-02T00:34:01.014Z,18.20
2023-03-02T00:36:29.184Z,13.23
2023-03-02T00:38:59.735Z,11.98
2023-03-02T00:41:28.385Z,13.00
2023-03-02T00:43:56.774Z,24.80
2023-03-02T00:46:26.113Z,21.20
2023-03-02T00:48:54.459Z,14.65
2023-03-02T00:51:23.009Z,10.60
2023-03-02T00:53:51.612Z,16.60
2023-03-02T00:56:21.356Z,14.05
2023-03-02T00:58:52.872Z,13.38
2023-03-02T01:01:21.719Z,12.95
2023-03-02T01:03:53.606Z,15.95
2023-03-02T01:06:22.847Z,15.98
2023-03-02T01:08:51.235Z,22.45
2023-03-02T01:11:22.809Z,16.35
2023-03-02T01:13:53.065Z,21.58
2023-03-02T01:16:21.383Z,28.65
2023-03-02T01:18:50.119Z,17.90
2023-03-02T01:21:18.482Z,11.65
2023-03-02T01:23:47.167Z,20.63
2023-03-02T01:26:15.605Z,14.20
2023-03-02T01:28:45.938Z,14.90
2023-03-02T01:31:14.236Z,10.30
2023-03-02T01:33:42.525Z,20.20
2023-03-02T01:36:11.033Z,15.82
2023-03-02T01:38:39.365Z,19.33
2023-03-02T01:41:07.762Z,14.82
2023-03-02T01:43:36.230Z,25.52
2023-03-02T01:46:07.675Z,24.00
2023-03-02T01:48:59.911Z,16.40
2023-03-02T01:51:39.443Z,16.38
2023-03-02T01:54:11.194Z,18.85
2023-03-02T01:56:41.828Z,18.83
2023-03-02T01:59:13.363Z,19.90
2023-03-02T02:01:46.675Z,18.23
2023-03-02T02:04:16.188Z,17.30
2023-03-02T02:06:48.950Z,19.45
2023-03-02T02:09:19.615Z,24.85
2023-03-02T02:11:48.277Z,20.38
2023-03-02T02:14:17.103Z,16.48
2023-03-02T02:16:46.800Z,24.60
2023-03-02T02:19:26.272Z,14.38
2023-03-02T02:21:54.617Z,18.88
2023-03-02T02:24:27.460Z,12.32
2023-03-02T02:26:58.222Z,20.80
2023-03-02T02:29:29.546Z,14.85
2023-03-02T02:32:02.808Z,19.20
2023-03-02T02:34:35.574Z,16.67
2023-03-02T02:37:09.807Z,18.67
2023-03-02T02:39:42.741Z,13.23
2023-03-02T02:42:18.567Z,22.85
2023-03-02T02:44:46.917Z,30.42
2023-03-02T02:47:19.306Z,21.45
2023-03-02T02:49:51.168Z,18.10
2023-03-02T02:52:21.635Z,26.52
2023-03-02T02:54:51.956Z,17.38
2023-03-02T02:57:24.618Z,23.13
2023-03-02T02:59:56.241Z,25.52
2023-03-02T03:02:27.017Z,18.35
2023-03-02T03:05:02.573Z,18.63
2023-03-02T03:07:34.030Z,18.75
2023-03-02T03:10:11.897Z,19.08
2023-03-02T03:12:42.171Z,27.73
2023-03-02T03:15:12.235Z,17.73
2023-03-02T03:17:40.928Z,25.67
2023-03-02T03:20:10.630Z,16.95
2023-03-02T03:22:43.799Z,21.23
2023-03-02T03:25:15.794Z,20.95
2023-03-02T03:27:48.573Z,19.27
2023-03-02T03:30:17.784Z,29.70
2023-03-02T03:32:46.468Z,30.08
2023-03-02T03:35:16.971Z,23.73
2023-03-02T03:37:45.804Z,25.10
2023-03-02T03:40:16.884Z,22.48
2023-03-02T03:42:48.145Z,19.42
2023-03-02T03:45:17.020Z,19.33
2023-03-02T03:47:46.096Z,15.68
2023-03-02T03:50:14.852Z,24.90
2023-03-02T03:52:44.105Z,21.33
2023-03-02T03:55:18.070Z,24.05
2023-03-02T03:57:49.310Z,19.48
2023-03-02T04:00:18.864Z,17.88
2023-03-02T04:02:55.959Z,18.67
2023-03-02T04:05:25.380Z,24.58
2023-03-02T04:07:55.278Z,20.25
2023-03-02T04:10:24.614Z,19.40
2023-03-02T04:12:56.082Z,21.00
2023-03-02T04:15:25.145Z,48.80
2023-03-02T04:17:54.037Z,25.88
2023-03-02T04:20:30.393Z,23.80
2023-03-02T04:22:59.681Z,30.33
2023-03-02T04:25:30.485Z,21.63
2023-03-02T04:28:20.422Z,17.42
2023-03-02T04:30:49.392Z,18.20
2023-03-02T04:33:18.066Z,25.48
2023-03-02T04:35:46.705Z,23.38
2023-03-02T04:38:15.838Z,20.67
2023-03-02T04:40:46.115Z,20.55
2023-03-02T04:43:14.970Z,23.00
2023-03-02T04:45:44.656Z,21.63
2023-03-02T04:48:12.913Z,23.58
2023-03-02T04:50:41.988Z,16.42
2023-03-02T04:53:12.007Z,26.70
2023-03-02T04:55:41.163Z,22.67
2023-03-02T04:58:10.497Z,21.30
2023-03-02T05:00:38.814Z,16.42
2023-03-02T05:03:08.630Z,19.45
2023-03-02T05:05:37.014Z,24.17
2023-03-02T05:08:05.673Z,21.85
2023-03-02T05:10:34.234Z,20.63
2023-03-02T05:13:05.133Z,22.25
2023-03-02T05:15:36.307Z,28.52
2023-03-02T05:18:05.868Z,24.95
2023-03-02T05:20:36.172Z,27.92
2023-03-02T05:23:06.906Z,25.42
2023-03-02T05:25:36.996Z,18.45
2023-03-02T05:28:07.010Z,17.40
2023-03-02T05:30:37.703Z,21.10
2023-03-02T05:33:06.366Z,23.75
2023-03-02T05:35:36.858Z,26.55
2023-03-02T05:38:05.414Z,17.30
2023-03-02T05:40:34.161Z,19.25
2023-03-02T05:43:02.697Z,26.50
2023-03-02T05:45:33.779Z,18.77
2023-03-02T05:48:02.147Z,22.67
2023-03-02T05:50:31.089Z,19.13
2023-03-02T05:53:02.587Z,25.35
2023-03-02T05:55:31.389Z,20.73
2023-03-02T05:57:59.586Z,23.20
2023-03-02T06:00:27.986Z,20.27
2023-03-02T06:02:57.537Z,15.68
2023-03-02T06:05:26.152Z,26.15
2023-03-02T06:07:54.790Z,21.55
2023-03-02T06:10:25.650Z,19.75
2023-03-02T06:12:54.007Z,20.17
2023-03-02T06:15:22.851Z,19.33
2023-03-02T06:17:51.131Z,24.30
2023-03-02T06:20:20.251Z,25.38
2023-03-02T06:22:48.868Z,18.10
2023-03-02T06:25:19.627Z,22.25
2023-03-02T06:27:51.993Z,24.00
2023-03-02T06:30:22.132Z,15.00
2023-03-02T06:32:50.496Z,12.88
2023-03-02T06:35:19.031Z,18.27
2023-03-02T06:37:47.399Z,7.03
2023-03-02T06:40:15.715Z,23.98
2023-03-02T06:42:44.298Z,18.98
2023-03-02T06:45:14.213Z,20.60
2023-03-02T06:47:42.665Z,19.40
2023-03-02T06:50:12.270Z,19.10
2023-03-02T06:52:40.844Z,22.25
2023-03-02T06:55:09.790Z,18.05
2023-03-02T06:57:38.561Z,42.03
2023-03-02T07:00:10.243Z,27.08
2023-03-02T07:02:40.018Z,28.00
2023-03-02T07:05:08.944Z,21.25
2023-03-02T07:07:37.656Z,15.18
2023-03-02T07:10:07.205Z,13.90
2023-03-02T07:12:35.930Z,18.27
2023-03-02T07:15:05.374Z,23.52
2023-03-02T07:17:35.469Z,23.63
2023-03-02T07:20:06.010Z,18.65
2023-03-02T07:22:34.989Z,23.38
2023-03-02T07:25:03.228Z,26.05
2023-03-02T07:27:32.991Z,28.55
2023-03-02T07:30:01.370Z,39.50
2023-03-02T07:32:29.679Z,24.35
2023-03-02T07:34:57.923Z,34.42
2023-03-02T07:37:27.561Z,20.42
2023-03-02T07:39:55.798Z,23.80
2023-03-02T07:42:24.342Z,21.60
2023-03-02T07:44:57.343Z,27.75
2023-03-02T07:47:25.845Z,17.17
2023-03-02T07:49:54.044Z,33.83
2023-03-02T07:52:22.376Z,21.33
2023-03-02T07:54:52.414Z,23.70
2023-03-02T07:57:20.953Z,21.90
2023-03-02T07:59:49.349Z,21.35
2023-03-02T08:02:20.288Z,22.88
2023-03-02T08:04:48.803Z,19.90
2023-03-02T08:07:17.662Z,24.05
2023-03-02T08:09:45.986Z,23.77
2023-03-02T08:12:15.633Z,23.55
2023-03-02T08:14:44.286Z,21.98
2023-03-02T08:17:12.560Z,23.27
2023-03-02T08:19:40.806Z,26.27
2023-03-02T08:22:09.441Z,30.90
2023-03-02T08:24:38.336Z,30.08
2023-03-02T08:27:06.617Z,26.25
2023-03-02T08:29:36.358Z,22.55
2023-03-02T08:32:05.208Z,27.38
2023-03-02T08:34:38.779Z,30.55
2023-03-02T08:37:07.092Z,31.95
2023-03-02T08:39:35.341Z,22.55
2023-03-02T08:42:03.580Z,26.38
2023-03-02T08:44:31.838Z,23.10
2023-03-02T08:47:01.475Z,19.38
2023-03-02T08:49:29.744Z,25.33
2023-03-02T08:52:01.103Z,20.98
2023-03-02T08:54:29.386Z,22.23
2023-03-02T08:56:58.021Z,25.02
2023-03-02T08:59:26.922Z,23.90
2023-03-02T09:01:55.139Z,27.77
2023-03-02T09:04:24.795Z,27.98
2023-03-02T09:06:53.136Z,26.83
2023-03-02T09:09:21.345Z,30.05
2023-03-02T09:11:49.568Z,22.95
2023-03-02T09:14:17.821Z,23.25
2023-03-02T09:16:47.068Z,22.83
2023-03-02T09:19:15.710Z,32.70
2023-03-02T09:21:45.477Z,21.38
2023-03-02T09:24:13.698Z,25.80
2023-03-02T09:26:43.750Z,22.02
2023-03-02T09:29:11.999Z,21.05
2023-03-02T09:31:40.561Z,30.30
2023-03-02T09:34:08.828Z,20.70
2023-03-02T09:36:38.110Z,39.08
2023-03-02T09:39:12.557Z,21.40
2023-03-02T09:42:22.883Z,18.77
2023-03-02T09:45:04.280Z,22.40
2023-03-02T09:47:40.035Z,20.48
2023-03-02T09:50:26.521Z,24.25
2023-03-02T09:53:12.911Z,31.05
2023-03-02T09:55:42.686Z,23.10
2023-03-02T09:58:18.269Z,21.13
2023-03-02T10:00:47.726Z,15.20
2023-03-02T10:03:19.910Z,24.15
2023-03-02T10:05:50.054Z,25.33
2023-03-02T10:08:20.827Z,26.73
2023-03-02T10:10:59.747Z,24.13
2023-03-02T10:13:32.028Z,27.40
2023-03-02T10:16:19.617Z,21.38
2023-03-02T10:18:52.261Z,27.98
2023-03-02T10:21:26.639Z,25.17
2023-03-02T10:23:59.005Z,22.90
2023-03-02T10:26:39.682Z,25.23
2023-03-02T10:29:28.964Z,30.15
2023-03-02T10:32:03.766Z,26.15
2023-03-02T10:34:32.475Z,27.60
2023-03-02T10:37:00.755Z,24.75
2023-03-02T10:39:29.088Z,16.77
2023-03-02T10:42:04.142Z,28.10
2023-03-02T10:44:37.578Z,24.53
2023-03-02T10:47:07.516Z,26.58
2023-03-02T10:49:39.397Z,25.17
2023-03-02T10:52:13.838Z,26.60
2023-03-02T10:54:42.531Z,18.92
2023-03-02T10:57:32.208Z,22.08
2023-03-02T11:00:03.109Z,26.88
2023-03-02T11:02:38.899Z,21.42
2023-03-02T11:05:24.046Z,21.80
2023-03-02T11:07:57.740Z,22.95
2023-03-02T11:10:29.261Z,22.38
2023-03-02T11:13:00.370Z,28.60
2023-03-02T11:15:35.774Z,28.95
2023-03-02T11:18:08.854Z,21.33
2023-03-02T11:20:41.139Z,24.90
2023-03-02T11:23:19.595Z,22.45
2023-03-02T11:25:52.973Z,28.20
2023-03-02T11:28:34.717Z,20.38
2023-03-02T11:31:08.177Z,15.25
2023-03-02T11:33:43.962Z,25.90
2023-03-02T11:36:19.309Z,22.63
2023-03-02T11:38:51.609Z,16.30
2023-03-02T11:41:29.895Z,32.72
2023-03-02T11:44:02.932Z,18.77
2023-03-02T11:46:33.382Z,21.23
2023-03-02T11:49:06.575Z,21.23
2023-03-02T11:51:39.073Z,19.33
2023-03-02T11:56:45.523Z,24.85
2023-03-02T11:59:20.361Z,19.27
2023-03-02T12:01:52.784Z,18.25
2023-03-02T12:04:30.075Z,24.92
2023-03-02T12:06:58.348Z,21.23
2023-03-02T12:09:39.482Z,18.88
2023-03-02T12:12:34.386Z,20.55
2023-03-02T12:15:04.500Z,18.65
2023-03-02T12:17:35.208Z,21.48
2023-03-02T12:20:26.649Z,16.25
2023-03-02T12:22:55.839Z,22.92
2023-03-02T12:25:29.928Z,15.02
2023-03-02T12:27:58.717Z,19.10
2023-03-02T12:30:30.595Z,21.17
2023-03-02T12:33:05.686Z,20.30
2023-03-02T12:35:35.655Z,17.65
2023-03-02T12:38:08.279Z,17.95
2023-03-02T12:40:49.872Z,20.92
2023-03-02T12:43:31.214Z,22.92
2023-03-02T12:46:29.176Z,26.40
2023-03-02T12:49:23.290Z,15.38
2023-03-02T12:51:55.208Z,12.30
2023-03-02T12:54:25.332Z,18.33
2023-03-02T12:57:06.417Z,11.40
2023-03-02T12:59:34.709Z,12.68
2023-03-02T13:02:17.646Z,15.82
2023-03-02T13:04:46.188Z,10.57
2023-03-02T13:07:20.360Z,9.85
2023-03-02T13:09:56.686Z,19.73
2023-03-02T13:12:28.526Z,12.82
2023-03-02T13:14:58.744Z,22.15
2023-03-02T13:17:31.356Z,10.75
2023-03-02T13:20:01.060Z,11.88
2023-03-02T13:22:30.098Z,16.60
2023-03-02T13:25:00.439Z,14.07
2023-03-02T13:27:29.152Z,13.07
2023-03-02T13:30:09.342Z,15.30
2023-03-02T13:32:41.585Z,8.98
2023-03-02T13:35:20.484Z,17.52
2023-03-02T13:37:56.941Z,16.15
2023-03-02T13:40:43.114Z,15.48
2023-03-02T13:45:54.837Z,11.68
2023-03-02T13:48:24.994Z,18.35
2023-03-02T13:50:57.339Z,16.35
2023-03-02T13:53:27.117Z,16.05
2023-03-02T13:55:55.889Z,18.42
2023-03-02T13:58:26.377Z,16.25
2023-03-02T14:00:55.674Z,18.42
2023-03-02T14:03:27.969Z,14.07
2023-03-02T14:05:57.769Z,15.20
2023-03-02T14:08:26.619Z,12.32
2023-03-02T14:10:58.388Z,16.35
2023-03-02T14:13:31.486Z,15.55
2023-03-02T14:15:59.895Z,11.18
2023-03-02T14:18:39.098Z,12.82
2023-03-02T14:21:12.046Z,14.00
2023-03-02T14:23:41.223Z,12.15
2023-03-02T14:26:35.165Z,16.42
2023-03-02T14:29:06.370Z,13.55
2023-03-02T14:31:35.386Z,12.50
2023-03-02T14:34:05.302Z,16.00
2023-03-02T14:36:35.106Z,12.38
2023-03-02T14:39:06.037Z,13.77
2023-03-02T14:41:43.910Z,14.52
2023-03-02T14:44:20.055Z,14.43
2023-03-02T14:46:48.362Z,12.68
2023-03-02T14:49:18.004Z,22.17
2023-03-02T14:51:53.869Z,13.20
2023-03-02T14:54:22.307Z,10.15
2023-03-02T14:56:50.768Z,10.73
2023-03-02T14:59:19.154Z,9.30
2023-03-02T15:01:47.612Z,10.82
2023-03-02T15:04:17.304Z,11.43
2023-03-02T15:06:47.037Z,18.20
2023-03-02T15:09:15.563Z,13.82
2023-03-02T15:11:44.085Z,10.88
2023-03-02T15:14:12.351Z,9.45
2023-03-02T15:16:43.140Z,13.32
2023-03-02T15:19:11.366Z,13.00
2023-03-02T15:21:44.677Z,13.60
2023-03-02T15:24:13.306Z,15.23
2023-03-02T15:26:42.648Z,10.90
2023-03-02T15:29:11.225Z,18.58
2023-03-02T15:31:39.482Z,11.40
2023-03-02T15:34:07.797Z,14.30
2023-03-02T15:36:36.410Z,11.23
2023-03-02T15:39:07.809Z,11.65
2023-03-02T15:41:36.556Z,13.02
2023-03-02T15:44:04.855Z,13.85
2023-03-02T15:46:33.132Z,13.75
2023-03-02T15:49:01.420Z,11.68
2023-03-02T15:51:30.638Z,13.80
2023-03-02T15:53:59.665Z,14.00
2023-03-02T15:56:38.882Z,12.15
2023-03-02T15:59:12.007Z,19.17
2023-03-02T16:01:40.632Z,11.82
2023-03-02T16:04:08.914Z,13.88
2023-03-02T16:06:37.528Z,12.13
2023-03-02T16:09:05.980Z,14.02
2023-03-02T16:11:36.031Z,15.02
2023-03-02T16:14:04.707Z,11.52
2023-03-02T16:16:32.975Z,24.90
2023-03-02T16:19:01.332Z,12.48
2023-03-02T16:21:31.078Z,15.10
2023-03-02T16:24:03.979Z,15.32
2023-03-02T16:26:33.712Z,9.05
2023-03-02T16:29:03.642Z,11.70
2023-03-02T16:31:33.776Z,15.25
2023-03-02T16:34:07.029Z,17.35
2023-03-02T16:36:36.162Z,15.63
2023-03-02T16:39:05.001Z,17.75
2023-03-02T16:41:33.392Z,10.50
2023-03-02T16:44:04.531Z,17.35
2023-03-02T16:46:36.299Z,11.15
2023-03-02T16:49:05.471Z,13.95
2023-03-02T16:51:34.065Z,11.70
2023-03-02T16:54:02.492Z,20.17
2023-03-02T16:56:30.847Z,15.88
2023-03-02T16:59:00.215Z,9.73
2023-03-02T17:01:30.364Z,20.10
2023-03-02T17:03:59.119Z,16.17
2023-03-02T17:06:29.953Z,23.48
2023-03-02T17:08:58.530Z,13.25
2023-03-02T17:11:26.807Z,13.38
2023-03-02T17:13:55.125Z,17.17
2023-03-02T17:16:24.870Z,18.88
2023-03-02T17:18:54.964Z,13.73
2023-03-02T17:21:24.460Z,26.23
2023-03-02T17:23:52.709Z,40.40
2023-03-02T17:26:20.930Z,32.10
2023-03-02T17:28:49.395Z,31.98
2023-03-02T17:31:17.751Z,40.03
2023-03-02T17:33:46.103Z,40.83
2023-03-02T17:36:15.830Z,35.88
2023-03-02T17:38:44.426Z,31.10
2023-03-02T17:41:13.181Z,44.10
2023-03-02T17:43:43.058Z,45.88
2023-03-02T17:46:20.184Z,45.70
2023-03-02T17:48:53.062Z,40.55
2023-03-02T17:51:30.700Z,49.08
2023-03-02T17:53:59.063Z,39.22
2023-03-02T17:56:28.646Z,42.95
2023-03-02T17:58:59.260Z,53.15
2023-03-02T18:01:28.943Z,36.97
2023-03-02T18:03:57.803Z,45.78
2023-03-02T18:06:28.348Z,38.70
2023-03-02T18:08:56.821Z,52.70
2023-03-02T18:11:26.769Z,58.55
2023-03-02T18:13:55.935Z,33.97
2023-03-02T18:16:25.313Z,38.45
2023-03-02T18:18:54.161Z,38.60
2023-03-02T18:21:23.565Z,42.10
2023-03-02T18:23:53.226Z,50.58
2023-03-02T18:26:21.674Z,45.78
2023-03-02T18:28:50.218Z,35.33
2023-03-02T18:31:20.153Z,47.97
2023-03-02T18:33:49.657Z,47.90
2023-03-02T18:36:17.926Z,40.75
2023-03-02T18:38:46.912Z,49.55
2023-03-02T18:41:16.502Z,55.88
2023-03-02T18:43:45.067Z,33.95
2023-03-02T18:46:21.934Z,48.15
2023-03-02T18:48:51.093Z,64.82
2023-03-02T18:51:20.009Z,52.00
2023-03-02T18:53:49.538Z,44.30
2023-03-02T18:56:19.240Z,36.78
2023-03-02T18:58:49.650Z,49.80
2023-03-02T19:01:18.119Z,32.78
2023-03-02T19:03:47.332Z,48.55
2023-03-02T19:06:16.528Z,43.53
2023-03-02T19:08:45.130Z,47.72
2023-03-02T19:11:13.952Z,43.67
2023-03-02T19:13:43.849Z,45.28
2023-03-02T19:16:12.171Z,47.97
2023-03-02T19:18:41.138Z,32.00
2023-03-02T19:21:09.412Z,44.47
2023-03-02T19:23:38.425Z,37.63
2023-03-02T19:26:06.815Z,43.92
2023-03-02T19:28:36.145Z,44.90
2023-03-02T19:31:08.878Z,44.13
2023-03-02T19:33:37.689Z,53.50
2023-03-02T19:36:06.746Z,61.58
2023-03-02T19:38:37.952Z,44.47
2023-03-02T19:41:06.595Z,42.00
2023-03-02T19:43:34.889Z,38.15
2023-03-02T19:46:03.848Z,42.33
2023-03-02T19:48:35.632Z,43.13
2023-03-02T19:51:05.029Z,43.25
2023-03-02T19:53:33.358Z,53.83
2023-03-02T19:56:03.876Z,52.53
2023-03-02T19:58:33.244Z,43.25
2023-03-02T20:01:04.230Z,52.20
2023-03-02T20:03:34.027Z,49.85
2023-03-02T20:06:03.271Z,45.65
2023-03-02T20:08:31.626Z,42.20
2023-03-02T20:11:00.310Z,47.88
2023-03-02T20:13:29.304Z,46.58
2023-03-02T20:15:57.525Z,44.72
2023-03-02T20:18:26.579Z,53.55
2023-03-02T20:20:57.349Z,41.92
2023-03-02T20:23:25.939Z,44.88
2023-03-02T20:25:54.375Z,57.85
2023-03-02T20:28:24.793Z,37.10
2023-03-02T20:30:56.166Z,51.50
2023-03-02T20:33:27.701Z,49.47
2023-03-02T20:35:58.360Z,49.85
2023-03-02T20:38:30.337Z,47.75
2023-03-02T20:40:58.661Z,36.92
2023-03-02T20:43:27.333Z,43.72
2023-03-02T20:45:56.397Z,45.42
2023-03-02T20:48:24.778Z,43.50
2023-03-02T20:50:53.140Z,57.17
2023-03-02T20:53:23.292Z,49.90
2023-03-02T20:55:51.711Z,53.95
2023-03-02T20:58:21.053Z,49.42
2023-03-02T21:00:49.322Z,61.95
2023-03-02T21:03:17.610Z,61.67
2023-03-02T21:05:45.842Z,48.75
2023-03-02T21:08:15.245Z,57.42
2023-03-02T21:10:45.471Z,81.75
2023-03-02T21:13:13.933Z,51.30
2023-03-02T21:15:42.997Z,45.85
2023-03-02T21:18:11.784Z,48.88
2023-03-02T21:20:40.357Z,54.70
2023-03-02T21:23:08.730Z,56.42
2023-03-02T21:25:37.383Z,54.17
2023-03-02T21:28:07.365Z,56.83
2023-03-02T21:30:35.794Z,46.08
2023-03-02T21:33:04.549Z,70.38
2023-03-02T21:35:32.806Z,53.08
2023-03-02T21:38:04.820Z,57.97
2023-03-02T21:40:35.780Z,52.58
2023-03-02T21:43:05.734Z,70.75
2023-03-02T21:45:36.659Z,55.67
2023-03-02T21:48:06.134Z,53.13
2023-03-02T21:50:36.710Z,60.63
2023-03-02T21:53:05.395Z,64.38
2023-03-02T21:55:34.056Z,67.47
2023-03-02T21:58:02.685Z,56.55
2023-03-02T22:00:33.623Z,56.05
2023-03-02T22:03:04.593Z,48.35
2023-03-02T22:05:33.618Z,49.35
2023-03-02T22:08:02.448Z,44.72
2023-03-02T22:10:33.203Z,56.70
2023-03-02T22:13:17.785Z,67.47
2023-03-02T22:15:47.355Z,52.55
2023-03-02T22:18:19.099Z,46.05
2023-03-02T22:20:49.912Z,51.35
2023-03-02T22:23:21.034Z,62.35
2023-03-02T22:25:53.403Z,49.63
2023-03-02T22:28:23.306Z,50.58
2023-03-02T22:30:53.610Z,50.30
2023-03-02T22:33:24.982Z,60.88
2023-03-02T22:36:02.508Z,51.20
2023-03-02T22:38:31.883Z,70.30
2023-03-02T22:41:00.499Z,74.32
2023-03-02T22:43:30.904Z,65.47
2023-03-02T22:46:06.896Z,58.25
2023-03-02T22:48:37.693Z,63.67
2023-03-02T22:51:15.617Z,71.20
2023-03-02T22:53:49.261Z,74.15
2023-03-02T22:56:35.040Z,67.13
2023-03-02T22:59:07.939Z,63.25
2023-03-02T23:01:40.708Z,54.42
2023-03-02T23:04:19.339Z,67.10
2023-03-02T23:06:48.929Z,80.53
2023-03-02T23:09:20.924Z,61.00
2023-03-02T23:11:51.228Z,56.22
2023-03-02T23:14:24.821Z,51.20
2023-03-02T23:16:55.850Z,61.35
2023-03-02T23:19:26.627Z,63.33
2023-03-02T23:21:55.317Z,58.80
2023-03-02T23:24:23.697Z,53.75
2023-03-02T23:26:53.854Z,56.72
2023-03-02T23:29:22.519Z,48.97
2023-03-02T23:31:51.295Z,46.20
2023-03-02T23:34:19.627Z,52.30
2023-03-02T23:36:49.225Z,36.85
2023-03-02T23:39:17.635Z,40.33
2023-03-02T23:41:46.319Z,38.53
2023-03-02T23:44:14.814Z,48.80
2023-03-02T23:46:43.464Z,45.60
2023-03-02T23:49:11.752Z,62.58
2023-03-02T23:51:40.899Z,41.70
2023-03-02T23:54:10.977Z,40.05
2023-03-02T23:56:39.800Z,28.67
2023-03-02T23:59:08.151Z,39.25
